Terminal Aerodrome Forecast
Issued by NWS Wilmington, OH

Home | Current Version | Previous Version | Text Only | Print | Product List | Glossary On
Versions: 1 2 3 4 5 6 7 8 9 10 11 12 13
787
FTUS41 KILN 210530
TAFCMH
TAF
KCMH 210530Z 2106/2206 13004KT P6SM SCT250
     FM211400 18009KT P6SM BKN250
     FM220000 16004KT P6SM SCT120 BKN250=

USA.gov is the U.S. government's official web portal to all federal, state and local government web resources and services.